createdAt,value
2023-05-05T00:00:58.644Z,73.44
2023-05-05T00:04:01.648Z,73.67
2023-05-05T00:07:04.548Z,73.93
2023-05-05T00:10:07.685Z,74.37
2023-05-05T00:13:11.451Z,74.13
2023-05-05T00:16:14.631Z,74.98
2023-05-05T00:19:17.423Z,74.60
2023-05-05T00:22:20.382Z,74.44
2023-05-05T00:25:23.243Z,74.17
2023-05-05T00:28:26.077Z,74.32
2023-05-05T00:31:29.183Z,74.64
2023-05-05T00:34:32.058Z,74.71
2023-05-05T00:37:34.978Z,74.65
2023-05-05T00:40:38.317Z,75.29
2023-05-05T00:43:41.073Z,75.16
2023-05-05T00:46:44.112Z,75.17
2023-05-05T00:49:47.185Z,74.94
2023-05-05T00:52:51.069Z,75.12
2023-05-05T00:55:54.152Z,75.32
2023-05-05T00:58:56.982Z,75.47
2023-05-05T01:02:00.118Z,75.82
2023-05-05T01:05:04.327Z,75.99
2023-05-05T01:08:26.809Z,76.17
2023-05-05T01:11:38.917Z,76.72
2023-05-05T01:14:48.163Z,76.49
2023-05-05T01:17:58.802Z,76.65
2023-05-05T01:21:29.498Z,76.82
2023-05-05T01:25:02.335Z,76.73
2023-05-05T01:29:04.216Z,76.61
2023-05-05T01:32:11.763Z,77.22
2023-05-05T01:35:22.160Z,78.13
2023-05-05T01:38:32.518Z,80.15
2023-05-05T01:41:42.641Z,82.13
2023-05-05T01:44:47.680Z,81.86
2023-05-05T01:47:52.737Z,78.78
2023-05-05T01:50:56.115Z,78.28
2023-05-05T01:54:07.807Z,77.62
2023-05-05T01:57:12.932Z,77.50
2023-05-05T02:00:18.092Z,77.61
2023-05-05T02:03:22.967Z,77.45
2023-05-05T02:06:30.019Z,77.33
2023-05-05T02:09:34.127Z,77.76
2023-05-05T02:12:37.632Z,77.46
2023-05-05T02:15:42.154Z,77.38
2023-05-05T02:18:46.374Z,77.22
2023-05-05T02:21:49.218Z,77.33
2023-05-05T02:24:52.432Z,79.25
2023-05-05T02:27:59.709Z,78.08
2023-05-05T02:31:06.089Z,77.69
2023-05-05T02:34:09.318Z,77.34
2023-05-05T02:37:18.093Z,77.78
2023-05-05T02:40:24.540Z,77.22
2023-05-05T02:43:29.848Z,77.30
2023-05-05T02:46:32.831Z,77.22
2023-05-05T02:49:35.654Z,77.29
2023-05-05T02:52:38.632Z,77.58
2023-05-05T02:55:57.508Z,77.60
2023-05-05T02:59:09.123Z,77.76
2023-05-05T03:02:20.745Z,77.75
2023-05-05T03:05:28.629Z,79.26
2023-05-05T03:08:43.132Z,79.45
2023-05-05T03:12:01.470Z,79.08
2023-05-05T03:15:09.377Z,79.60
2023-05-05T03:18:13.248Z,79.57
2023-05-05T03:21:16.611Z,79.42
2023-05-05T03:24:20.815Z,79.57
2023-05-05T03:27:23.633Z,79.97
2023-05-05T03:30:26.540Z,80.13
2023-05-05T03:33:29.330Z,79.05
2023-05-05T03:36:32.248Z,78.54
2023-05-05T03:39:35.022Z,79.58
2023-05-05T03:42:37.887Z,79.06
2023-05-05T03:45:40.761Z,78.40
2023-05-05T03:48:43.734Z,77.51
2023-05-05T03:51:47.389Z,77.20
2023-05-05T03:54:50.286Z,76.62
2023-05-05T03:57:53.222Z,75.73
2023-05-05T04:00:56.005Z,74.81
2023-05-05T04:03:58.739Z,73.58
2023-05-05T04:07:01.760Z,71.92
2023-05-05T04:10:04.930Z,70.57
2023-05-05T04:13:08.876Z,68.38
2023-05-05T04:16:12.197Z,66.44
2023-05-05T04:19:15.041Z,65.17
2023-05-05T04:22:17.818Z,65.78
2023-05-05T04:25:20.629Z,64.00
2023-05-05T04:28:23.388Z,62.01
2023-05-05T04:31:26.173Z,61.05
2023-05-05T04:34:29.121Z,59.71
2023-05-05T04:37:32.069Z,60.17
2023-05-05T04:40:38.832Z,61.50
2023-05-05T04:43:41.568Z,61.96
2023-05-05T04:46:44.523Z,62.69
2023-05-05T04:49:47.381Z,62.07
2023-05-05T04:52:52.559Z,61.34
2023-05-05T04:55:55.696Z,62.95
2023-05-05T04:58:58.623Z,63.70
2023-05-05T05:02:01.745Z,64.25
2023-05-05T05:05:04.886Z,65.14
2023-05-05T05:08:07.659Z,65.05
2023-05-05T05:11:10.643Z,64.95
2023-05-05T05:14:13.456Z,64.83
2023-05-05T05:17:16.454Z,64.93
2023-05-05T05:20:19.773Z,64.93
2023-05-05T05:23:22.509Z,63.97
2023-05-05T05:26:25.409Z,63.29
2023-05-05T05:29:28.260Z,63.01
2023-05-05T05:32:31.149Z,62.03
2023-05-05T05:35:33.930Z,61.37
2023-05-05T05:38:36.767Z,61.50
2023-05-05T05:41:39.543Z,61.48
2023-05-05T05:44:42.367Z,61.59
2023-05-05T05:47:45.225Z,61.45
2023-05-05T05:50:48.032Z,61.45
2023-05-05T05:53:51.968Z,62.39
2023-05-05T05:56:54.777Z,61.15
2023-05-05T05:59:59.688Z,61.00
2023-05-05T06:03:04.137Z,60.04
2023-05-05T06:06:07.630Z,58.99
2023-05-05T06:09:10.473Z,58.57
2023-05-05T06:12:13.212Z,58.55
2023-05-05T06:15:16.068Z,56.27
2023-05-05T06:18:18.994Z,53.93
2023-05-05T06:21:21.769Z,55.40
2023-05-05T06:24:24.595Z,54.60
2023-05-05T06:27:27.410Z,53.37
2023-05-05T06:30:30.173Z,50.88
2023-05-05T06:33:32.969Z,52.19
2023-05-05T06:36:35.838Z,49.70
2023-05-05T06:39:38.824Z,50.44
2023-05-05T06:42:41.800Z,50.97
2023-05-05T06:45:44.654Z,51.15
2023-05-05T06:48:47.671Z,51.80
2023-05-05T06:51:50.461Z,50.64
2023-05-05T06:54:53.350Z,50.87
2023-05-05T06:57:56.113Z,49.22
2023-05-05T07:00:59.180Z,50.59
2023-05-05T07:04:02.134Z,49.52
2023-05-05T07:07:04.941Z,48.66
2023-05-05T07:10:09.812Z,49.04
2023-05-05T07:13:15.634Z,48.76
2023-05-05T07:16:18.380Z,48.19
2023-05-05T07:19:21.153Z,49.19
2023-05-05T07:22:23.920Z,49.22
2023-05-05T07:25:26.816Z,49.57
2023-05-05T07:28:29.583Z,49.73
2023-05-05T07:31:32.439Z,49.66
2023-05-05T07:34:37.411Z,49.75
2023-05-05T07:37:40.286Z,49.68
2023-05-05T07:40:43.069Z,49.46
2023-05-05T07:43:46.196Z,49.16
2023-05-05T07:46:48.997Z,48.97
2023-05-05T07:49:52.104Z,48.94
2023-05-05T07:53:02.353Z,48.71
2023-05-05T07:56:13.245Z,49.15
2023-05-05T07:59:16.072Z,47.86
2023-05-05T08:02:19.099Z,46.69
2023-05-05T08:05:22.006Z,47.66
2023-05-05T08:08:25.205Z,47.10
2023-05-05T08:11:29.646Z,46.07
2023-05-05T08:14:33.193Z,45.20
2023-05-05T08:17:50.407Z,46.38
2023-05-05T08:20:54.772Z,45.60
2023-05-05T08:23:57.590Z,45.40
2023-05-05T08:27:00.863Z,44.46
2023-05-05T08:30:04.495Z,42.88
2023-05-05T08:33:07.369Z,43.08
2023-05-05T08:36:10.406Z,43.19
2023-05-05T08:39:13.274Z,43.12
2023-05-05T08:42:28.926Z,42.43
2023-05-05T08:45:38.572Z,43.15
2023-05-05T08:48:42.735Z,42.83
2023-05-05T08:51:46.747Z,44.48
2023-05-05T08:55:05.546Z,44.35
2023-05-05T08:58:09.955Z,44.69
2023-05-05T09:01:14.294Z,44.02
2023-05-05T09:04:19.195Z,44.99
2023-05-05T09:07:22.502Z,44.23
2023-05-05T09:10:26.578Z,46.26
2023-05-05T09:13:31.129Z,45.82
2023-05-05T09:16:34.054Z,44.01
2023-05-05T09:20:04.532Z,42.89
2023-05-05T09:23:14.525Z,43.82
2023-05-05T09:26:17.326Z,44.07
2023-05-05T09:29:21.565Z,44.65
2023-05-05T09:32:25.182Z,42.75
2023-05-05T09:35:28.658Z,41.73
2023-05-05T09:38:31.555Z,41.75
2023-05-05T09:41:39.354Z,40.11
2023-05-05T09:44:42.382Z,40.25
2023-05-05T09:47:49.182Z,40.17
2023-05-05T09:50:52.609Z,39.91
2023-05-05T09:53:55.419Z,39.70
2023-05-05T09:56:58.304Z,38.99
2023-05-05T10:00:02.665Z,37.82
2023-05-05T10:03:05.581Z,37.77
2023-05-05T10:06:08.408Z,36.65
2023-05-05T10:09:11.295Z,37.23
2023-05-05T10:12:14.157Z,37.36
2023-05-05T10:15:17.908Z,38.09
2023-05-05T10:18:28.743Z,37.25
2023-05-05T10:21:34.388Z,36.74
2023-05-05T10:24:47.122Z,36.80
2023-05-05T10:27:53.166Z,38.40
2023-05-05T10:30:58.519Z,37.51
2023-05-05T10:34:04.274Z,36.16
2023-05-05T10:37:07.826Z,36.54
2023-05-05T10:40:11.899Z,37.28
2023-05-05T10:43:15.245Z,37.05
2023-05-05T10:46:18.262Z,39.42
2023-05-05T10:49:39.972Z,41.01
2023-05-05T10:52:54.899Z,39.76
2023-05-05T10:56:10.540Z,39.65
2023-05-05T10:59:39.046Z,40.37
2023-05-05T11:02:42.055Z,38.71
2023-05-05T11:06:03.990Z,40.64
2023-05-05T11:09:29.247Z,38.39
2023-05-05T11:12:35.494Z,38.47
2023-05-05T11:15:39.810Z,37.88
2023-05-05T11:18:45.719Z,36.94
2023-05-05T11:22:01.749Z,37.16
2023-05-05T11:25:42.218Z,36.58
2023-05-05T11:29:14.403Z,36.80
2023-05-05T11:32:17.224Z,36.45
2023-05-05T11:35:20.187Z,34.87
2023-05-05T11:38:58.649Z,35.71
2023-05-05T11:42:24.617Z,35.13
2023-05-05T11:45:27.518Z,35.73
2023-05-05T11:48:30.329Z,34.59
2023-05-05T11:51:33.606Z,35.26
2023-05-05T11:54:38.455Z,34.77
2023-05-05T11:57:41.268Z,33.72
2023-05-05T12:00:44.105Z,34.48
2023-05-05T12:03:47.198Z,32.06
2023-05-05T12:06:50.300Z,33.67
2023-05-05T12:09:53.893Z,31.26
2023-05-05T12:12:56.761Z,31.88
2023-05-05T12:16:16.987Z,31.07
2023-05-05T12:19:19.919Z,33.64
2023-05-05T12:22:24.773Z,34.46
2023-05-05T12:25:35.740Z,33.13
2023-05-05T12:28:48.506Z,30.99
2023-05-05T12:31:51.652Z,30.32
2023-05-05T12:34:57.363Z,30.23
2023-05-05T12:38:00.563Z,30.77
2023-05-05T12:41:03.769Z,29.10
2023-05-05T12:44:06.827Z,30.58
2023-05-05T12:47:11.251Z,29.48
2023-05-05T12:50:14.083Z,28.49
2023-05-05T12:53:24.333Z,28.50
2023-05-05T12:56:44.255Z,28.14
2023-05-05T12:59:47.297Z,29.07
2023-05-05T13:02:50.165Z,29.95
2023-05-05T13:05:52.982Z,29.87
2023-05-05T13:08:57.219Z,30.03
2023-05-05T13:12:00.234Z,28.92
2023-05-05T13:15:03.585Z,28.25
2023-05-05T13:18:06.574Z,30.41
2023-05-05T13:21:09.444Z,29.06
2023-05-05T13:24:28.142Z,28.78
2023-05-05T13:27:35.318Z,28.40
2023-05-05T13:30:38.305Z,28.57
2023-05-05T13:33:41.782Z,27.35
2023-05-05T13:36:44.764Z,28.12
2023-05-05T13:39:47.519Z,27.73
2023-05-05T13:42:50.340Z,26.47
2023-05-05T13:46:05.561Z,27.41
2023-05-05T13:49:11.980Z,27.18
2023-05-05T13:52:15.080Z,26.16
2023-05-05T13:55:18.187Z,24.58
2023-05-05T13:58:21.140Z,25.19
2023-05-05T14:01:24.079Z,25.65
2023-05-05T14:04:26.898Z,25.18
2023-05-05T14:07:29.708Z,25.21
2023-05-05T14:10:32.480Z,25.03
2023-05-05T14:13:35.226Z,25.00
2023-05-05T14:16:38.007Z,25.00
2023-05-05T14:19:40.986Z,25.30
2023-05-05T14:22:43.914Z,25.10
2023-05-05T14:25:46.845Z,25.27
2023-05-05T14:28:50.156Z,24.81
2023-05-05T14:31:53.098Z,24.64
2023-05-05T14:34:56.467Z,25.49
2023-05-05T14:37:59.406Z,25.07
2023-05-05T14:41:02.163Z,24.60
2023-05-05T14:44:05.107Z,24.77
2023-05-05T14:47:07.957Z,25.14
2023-05-05T14:50:11.127Z,25.36
2023-05-05T14:53:13.867Z,24.83
2023-05-05T14:56:17.240Z,24.29
2023-05-05T14:59:20.110Z,23.83
2023-05-05T15:02:22.969Z,23.76
2023-05-05T15:05:25.919Z,23.48
2023-05-05T15:08:28.829Z,23.90
2023-05-05T15:11:31.561Z,24.20
2023-05-05T15:14:34.401Z,23.93
2023-05-05T15:17:38.869Z,24.37
2023-05-05T15:20:42.054Z,24.98
2023-05-05T15:23:45.120Z,24.88
2023-05-05T15:26:47.900Z,23.39
2023-05-05T15:29:50.687Z,24.59
2023-05-05T15:32:54.196Z,25.47
2023-05-05T15:35:57.125Z,25.80
2023-05-05T15:38:59.871Z,25.62
2023-05-05T15:42:05.752Z,25.70
2023-05-05T15:45:12.576Z,25.67
2023-05-05T15:48:15.446Z,26.13
2023-05-05T15:51:18.389Z,25.81
2023-05-05T15:54:21.237Z,26.21
2023-05-05T15:57:24.060Z,26.19
2023-05-05T16:00:27.057Z,26.25
2023-05-05T16:03:29.825Z,26.10
2023-05-05T16:06:32.837Z,25.89
2023-05-05T16:09:35.762Z,26.34
2023-05-05T16:12:38.594Z,26.51
2023-05-05T16:15:41.380Z,26.80
2023-05-05T16:18:44.220Z,26.97
2023-05-05T16:21:47.100Z,27.65
2023-05-05T16:24:49.862Z,27.86
2023-05-05T16:27:53.841Z,28.14
2023-05-05T16:30:56.684Z,28.39
2023-05-05T16:34:00.233Z,28.48
2023-05-05T16:37:03.519Z,28.89
2023-05-05T16:40:06.895Z,29.45
2023-05-05T16:43:09.662Z,29.73
2023-05-05T16:46:12.658Z,30.47
2023-05-05T16:49:15.461Z,30.83
2023-05-05T16:52:18.818Z,31.18
2023-05-05T16:55:21.687Z,31.49
2023-05-05T16:58:24.571Z,31.85
2023-05-05T17:01:27.512Z,32.37
2023-05-05T17:04:30.391Z,32.36
2023-05-05T17:07:33.230Z,32.17
2023-05-05T17:10:36.379Z,32.10
2023-05-05T17:13:39.257Z,32.33
2023-05-05T17:16:42.258Z,32.47
2023-05-05T17:19:45.486Z,32.92
2023-05-05T17:22:48.327Z,33.16
2023-05-05T17:25:51.653Z,33.13
2023-05-05T17:28:54.402Z,33.31
2023-05-05T17:31:57.265Z,33.66
2023-05-05T17:35:00.005Z,34.23
2023-05-05T17:38:02.774Z,35.05
2023-05-05T17:41:06.507Z,35.98
2023-05-05T17:44:09.368Z,36.84
2023-05-05T17:47:12.140Z,37.85
2023-05-05T17:50:14.975Z,38.15
2023-05-05T17:53:17.855Z,38.63
2023-05-05T17:56:20.622Z,39.24
2023-05-05T17:59:23.524Z,40.15
2023-05-05T18:02:26.429Z,40.76
2023-05-05T18:05:30.427Z,41.51
2023-05-05T18:08:33.208Z,41.71
2023-05-05T18:11:35.996Z,42.10
2023-05-05T18:14:38.865Z,42.71
2023-05-05T18:17:41.651Z,42.81
2023-05-05T18:20:44.486Z,43.58
2023-05-05T18:23:47.424Z,43.42
2023-05-05T18:26:51.762Z,43.65
2023-05-05T18:29:55.322Z,43.99
2023-05-05T18:32:58.244Z,44.34
2023-05-05T18:36:03.338Z,45.02
2023-05-05T18:39:06.203Z,45.10
2023-05-05T18:42:08.998Z,46.10
2023-05-05T18:45:12.058Z,45.97
2023-05-05T18:48:14.845Z,46.38
2023-05-05T18:51:17.627Z,46.83
2023-05-05T18:54:22.094Z,46.82
2023-05-05T18:57:24.902Z,47.11
2023-05-05T19:00:27.684Z,47.86
2023-05-05T19:03:30.654Z,48.02
2023-05-05T19:06:33.426Z,47.84
2023-05-05T19:09:36.201Z,48.00
2023-05-05T19:12:39.099Z,48.15
2023-05-05T19:15:41.993Z,49.46
2023-05-05T19:18:44.867Z,49.15
2023-05-05T19:21:47.720Z,49.73
2023-05-05T19:24:50.707Z,50.65
2023-05-05T19:27:53.496Z,51.03
2023-05-05T19:30:56.314Z,51.61
2023-05-05T19:34:04.720Z,51.66
2023-05-05T19:37:07.574Z,51.77
2023-05-05T19:40:11.087Z,50.90
2023-05-05T19:43:14.443Z,51.52
2023-05-05T19:46:17.419Z,51.90
2023-05-05T19:49:20.262Z,51.87
2023-05-05T19:52:23.022Z,51.67
2023-05-05T19:55:25.879Z,51.19
2023-05-05T19:58:28.920Z,51.01
2023-05-05T20:01:33.173Z,50.70
2023-05-05T20:04:36.027Z,50.56
2023-05-05T20:07:38.889Z,50.34
2023-05-05T20:10:41.761Z,50.44
2023-05-05T20:13:44.674Z,50.24
2023-05-05T20:16:48.044Z,50.16
2023-05-05T20:19:50.964Z,49.99
2023-05-05T20:22:53.768Z,50.32
2023-05-05T20:25:56.822Z,50.38
2023-05-05T20:28:59.678Z,50.31
2023-05-05T20:32:02.468Z,50.71
2023-05-05T20:35:06.203Z,50.72
2023-05-05T20:38:09.858Z,51.04
2023-05-05T20:41:12.620Z,51.06
2023-05-05T20:44:15.666Z,51.15
2023-05-05T20:47:18.524Z,51.46
2023-05-05T20:50:21.478Z,52.67
2023-05-05T20:53:25.506Z,52.33
2023-05-05T20:56:28.529Z,53.21
2023-05-05T20:59:32.230Z,54.00
2023-05-05T21:02:35.176Z,53.53
2023-05-05T21:05:39.609Z,54.58
2023-05-05T21:08:42.400Z,53.92
2023-05-05T21:11:45.167Z,55.71
2023-05-05T21:14:47.958Z,55.25
2023-05-05T21:17:51.358Z,54.85
2023-05-05T21:20:54.217Z,54.74
2023-05-05T21:23:57.704Z,54.99
2023-05-05T21:27:00.610Z,55.23
2023-05-05T21:30:03.586Z,55.54
2023-05-05T21:33:06.438Z,55.66
2023-05-05T21:36:09.411Z,55.92
2023-05-05T21:39:12.201Z,56.62
2023-05-05T21:42:15.399Z,56.80
2023-05-05T21:45:18.226Z,58.14
2023-05-05T21:48:21.149Z,59.01
2023-05-05T21:51:23.989Z,57.67
2023-05-05T21:54:27.068Z,58.28
2023-05-05T21:57:30.460Z,57.87
2023-05-05T22:00:33.266Z,58.16
2023-05-05T22:03:36.645Z,58.61
2023-05-05T22:06:39.568Z,58.93
2023-05-05T22:09:43.172Z,58.98
2023-05-05T22:12:46.019Z,59.15
2023-05-05T22:15:49.038Z,60.35
2023-05-05T22:18:52.153Z,59.92
2023-05-05T22:21:54.983Z,60.27
2023-05-05T22:24:57.835Z,61.09
2023-05-05T22:28:00.682Z,60.67
2023-05-05T22:31:03.629Z,62.42
2023-05-05T22:34:06.620Z,62.07
2023-05-05T22:37:09.662Z,60.67
2023-05-05T22:40:13.031Z,61.20
2023-05-05T22:43:15.901Z,61.46
2023-05-05T22:46:18.728Z,61.63
2023-05-05T22:49:22.886Z,61.67
2023-05-05T22:52:28.292Z,62.22
2023-05-05T22:55:31.225Z,62.24
2023-05-05T22:58:34.255Z,62.46
2023-05-05T23:01:37.298Z,67.82
2023-05-05T23:04:40.318Z,63.72
2023-05-05T23:07:43.179Z,69.04
2023-05-05T23:10:46.072Z,68.20
2023-05-05T23:13:48.855Z,66.79
2023-05-05T23:16:51.724Z,65.13
2023-05-05T23:19:54.713Z,65.08
2023-05-05T23:22:57.432Z,64.86
2023-05-05T23:26:00.266Z,64.66
2023-05-05T23:29:03.258Z,64.94
2023-05-05T23:32:06.528Z,64.93
2023-05-05T23:35:09.965Z,65.65
2023-05-05T23:38:13.181Z,65.09
2023-05-05T23:41:15.982Z,64.51
2023-05-05T23:44:18.780Z,65.40
2023-05-05T23:47:21.608Z,65.25
2023-05-05T23:50:25.895Z,66.22
2023-05-05T23:53:28.703Z,66.36
2023-05-05T23:56:31.952Z,66.68
2023-05-05T23:59:34.890Z,65.80
